x

East Dellwood (46207) Wave Buoy

4:00am - Tue 31st Mar 2015 All times are PDT. -7 hours from GMT.

  • Sig Wave height 8.9ft
  • Peak Period 9s
  • Wind
    13mph, 16mph gusts
  • Sea Temp 50°f
  • Air Temp 48°f
  • Sea Pressure 1012.2mb
  • East Dellwood
  • East Dellwood

More Historic Weather Station data

Upgrade to MSW Pro to gain access to the past 30 days of data for over 8000 Wavebouys and Weather Stations around the globe.

Join Pro

Comparision Forecast

View Surf forecast
   
Tue 03/31 4:00am 9ft 9s 13 16 mph 1012.2mb 50f 48f
3:00am 10ft 11s 16 18 mph 1011.8mb 50f 48f
2:00am 10ft 10s 16 18 mph 1011.4mb 50f 48f
1:00am 11ft 12s 16 20 mph 1011.1mb 50f 48f
12:00am 11ft 11s 13 18 mph 1011.3mb 50f 48f
Mon 03/30 11:00pm 12ft 10s 13 18 mph 1011.2mb 50f 48f
10:00pm 13ft 10s 13 16 mph 1011.2mb 50f 48f
9:00pm 12.5ft 10s 13 18 mph 1010.8mb 50f 49f
8:00pm 13.5ft 10s 18 20 mph 1010.3mb 50f 49f
7:00pm 12.5ft 11s 9
mph
1010.3mb 50f 48f
6:00pm 12.5ft 8s 18 22 mph 1010.1mb 50f 49f
5:00pm 13ft 8s 18 25 mph 1009.9mb 50f 49f
4:00pm 13.5ft 9s 20 27 mph 1009.6mb 50f 49f
3:00pm 13.5ft 9s 22 29 mph 1009.1mb 50f 49f
2:00pm 13.5ft 10s 22 31 mph 1008.6mb 50f 49f
1:00pm 13.5ft 8s 22 31 mph 1008.2mb 50f 49f
12:00pm 14ft 10s 25 31 mph 1007.4mb 50f 49f
11:00am 14.5ft 10s 25 31 mph 1006.4mb 50f 49f
10:00am 13.5ft 9s 25 31 mph 1005.4mb 50f 49f
9:00am 15ft 9s 27 34 mph 1004.5mb 50f 49f
8:00am 15ft 8s 29 36 mph 1003.6mb 50f 50f
7:00am 15.5ft 8s 31 40 mph 1002.2mb 50f 50f
6:00am 15ft 8s 34 47 mph 1000.9mb 50f 52f
5:00am 13.5ft 8s 31 40 mph 1001.3mb 50f 52f
4:00am 13.5ft 7s 34 43 mph 1002mb 50f 52f
3:00am 14ft 13s 31 38 mph 1003.3mb 50f 52f
2:00am 12ft 12s 36 43 mph 1004.2mb 50f 50f
1:00am  -   -  36
mph
1006.2mb - 49f
12:00am 10.5ft 12s 31 40 mph 1009.5mb 50f 49f
Sun 03/29 11:00pm 11.5ft 12s 25 31 mph 1011.7mb 50f 49f
10:00pm 11.5ft 13s 18 22 mph 1013.2mb 50f 50f
9:00pm 12.5ft 12s 20 25 mph 1014.1mb 50f 51f
8:00pm 12ft 13s 18 20 mph 1015.2mb 50f 51f
7:00pm 12ft 12s 13 18 mph 1015.7mb 50f 50f
6:00pm 13.5ft 12s 13 18 mph 1017mb 51f 51f
5:00pm 13ft 14s 11 13 mph 1017.9mb 51f 51f
4:00pm 13ft 12s 11 13 mph 1018.1mb 51f 51f
3:00pm 13.5ft 12s 9 11 mph 1018.5mb 51f 51f
2:00pm 12.5ft 14s 11 13 mph 1018.7mb 50f 51f
1:00pm 12.5ft 12s 11 13 mph 1018.2mb 50f 51f
12:00pm 12ft 11s 13 18 mph 1017.9mb 50f 51f
11:00am 12ft 11s 13 18 mph 1017.3mb 50f 50f
10:00am 12ft 11s 16 20 mph 1016.7mb 50f 50f
9:00am 12ft 11s 18 20 mph 1015.8mb 50f 50f
8:00am 13ft 11s 18 22 mph 1014.9mb 50f 50f
7:00am 12ft 11s 20 27 mph 1014.2mb 50f 51f
6:00am 12.5ft 10s 18 22 mph 1013.8mb 50f 51f
5:00am 13ft 10s 20 25 mph 1013.4mb 50f 51f
4:00am 12ft 12s 20 27 mph 1012.8mb 50f 50f
3:00am 12ft 11s 20 25 mph 1012.5mb 50f 50f
2:00am 11ft 12s 18 22 mph 1012.2mb 50f 50f
1:00am 12ft 10s 20 25 mph 1012.1mb 50f 49f
12:00am 11.5ft 10s 16 20 mph 1012.2mb 50f 50f
Sat 03/28 11:00pm 11ft 12s 16 20 mph 1012.2mb 50f 50f
10:00pm 12.5ft 12s 16 20 mph 1012.3mb 50f 51f
9:00pm 12ft 10s 16 20 mph 1012.3mb 50f 51f
8:00pm 12ft 10s 16 20 mph 1012mb 50f 51f
7:00pm 12.5ft 8s 18 22 mph 1012mb 50f 51f
6:00pm 12.5ft 8s 18 22 mph 1011.5mb 50f 51f
5:00pm 11.5ft 7s 22 27 mph 1010.9mb 50f 51f
4:00pm 12ft 8s 20 25 mph 1010.3mb 50f 51f
3:00pm 12ft 7s 22 29 mph 1009.7mb 50f 51f
2:00pm 12ft 8s 27 34 mph 1009.7mb 50f 52f
1:00pm 11.5ft 7s 31 38 mph 1009.8mb 50f 51f
12:00pm 10ft 7s 31 40 mph 1010.3mb 50f 50f
11:00am 9ft 11s 31 38 mph 1011.1mb 50f 50f
10:00am 8ft 10s 31 38 mph 1011.6mb 50f 49f
9:00am 7.5ft 10s 31 38 mph 1012.2mb 50f 48f
8:00am 8ft 11s 27 31 mph 1012.9mb 50f 48f
7:00am 7.5ft 11s 22 29 mph 1013.9mb 50f 50f
6:00am 7.5ft 10s 18 22 mph 1014.2mb 50f 50f
5:00am 7ft 12s 18 20 mph 1014.7mb 50f 49f
4:00am 7.5ft 11s 13 16 mph 1014.9mb 50f 49f
3:00am 7.5ft 11s 13 16 mph 1015.1mb 50f 49f
2:00am 7ft 11s 11 16 mph 1015.1mb 50f 49f
1:00am 7.5ft 12s 13 16 mph 1015.1mb 50f 49f
12:00am 7.5ft 12s 11 13 mph 1014.8mb 50f 49f
Fri 03/27 11:00pm 8ft 11s 11 13 mph 1014.3mb 50f 49f
10:00pm 8.5ft 12s 13 18 mph 1013.8mb 50f 49f
9:00pm 8ft 11s 13 18 mph 1012.7mb 50f 49f
8:00pm 10ft 12s 13 16 mph 1012mb 50f 49f
7:00pm 10ft 11s 16 18 mph 1011.4mb 50f 49f
6:00pm 9ft 11s 16 18 mph 1011.1mb 50f 49f
5:00pm 9ft 11s 16 18 mph 1011.2mb 50f 49f
4:00pm 10ft 11s 16 20 mph 1011.5mb 50f 48f
3:00pm 9ft 11s 16 20 mph 1011.2mb 50f 48f
2:00pm 10ft 12s 18 20 mph 1011.4mb 50f 48f
1:00pm 9.5ft 13s 13 18 mph 1011.6mb 50f 48f